Sol Duc Hot Springs, Washington
Current Conditions -  °F | °C
As of 2:53 PM on Saturday 25 Oct 2014 (Local Time) from KCLM Reporting Station
Light Rain Light Rain  
Wind Chill: 52°   Ceiling: 400
Heat Index: 52°   Visibility: 3mi
Dew Point: 50°   Wind: 5mph
Humidity: 93%   Direction: 100°E
Pressure: 29.29"   Gusts: NA
Location:  48.0203°N, 123.478°W
Report Text: KCLM 252153Z AUTO 10004KT 3SM -RA BR BKN004 BKN016 OVC022 11/10 A2929 RMK AO2 SLP920 P0004 T01110100 TSNO $
Loading
Personal Weather Stations






























Interactive Weather Map
Tropical Storm Tracking
New forecast layout! Learn more

10-Day Weather Forecast

Advertisements
Track Severe Weather on mobile